Time;durP1;ratioP1;P1;durP2;ratioP2;P2;SDS_P1;SDS_P2;PMS_P1;PMS_P2;Temp;Humidity;BMP_temperature;BMP_pressure;BME280_temperature;BME280_humidity;BME280_pressure;Samples;Min_cycle;Max_cycle;Signal;HPM_P1;HPM_P2
2022/07/04 00:00:13;;;;;;;1.97;1.27;;;;;;;18.89;69.62;98864.78;5013265;28;20217;-49
2022/07/04 00:02:41;;;;;;;1.50;1.40;;;;;;;18.87;69.93;98858.88;5013400;28;20243;-49
2022/07/04 00:05:10;;;;;;;3.13;1.23;;;;;;;18.86;70.14;98858.03;5013287;28;20214;-49
2022/07/04 00:07:37;;;;;;;2.57;1.30;;;;;;;18.85;69.85;98855.63;5013205;28;20234;-49
2022/07/04 00:10:04;;;;;;;2.63;1.30;;;;;;;18.88;71.40;98857.88;5011792;28;20205;-49
2022/07/04 00:12:31;;;;;;;2.00;1.30;;;;;;;18.82;71.19;98854.16;5013517;28;20711;-49
2022/07/04 00:14:59;;;;;;;3.13;1.47;;;;;;;18.77;71.05;98855.78;5012138;28;20567;-49
2022/07/04 00:17:26;;;;;;;9.00;2.20;;;;;;;18.78;72.31;98858.22;5016529;28;20220;-49
2022/07/04 00:22:38;;;;;;;5.27;1.57;;;;;;;18.64;73.11;98865.31;5033076;28;20226;-49
2022/07/04 00:25:05;;;;;;;2.07;1.30;;;;;;;18.59;72.78;98865.06;5032304;28;20492;-49
2022/07/04 00:27:31;;;;;;;2.43;1.50;;;;;;;18.56;72.82;98868.13;5033242;28;20232;-49
2022/07/04 00:30:01;;;;;;;3.70;1.40;;;;;;;18.56;72.13;98873.41;5032042;28;20213;-50
2022/07/04 00:32:27;;;;;;;1.63;1.30;;;;;;;18.61;72.54;98876.28;5033937;28;20707;-49
2022/07/04 00:34:55;;;;;;;2.70;1.57;;;;;;;18.65;72.91;98877.50;5033500;28;20193;-48
2022/07/04 00:37:21;;;;;;;2.60;1.40;;;;;;;18.66;72.86;98875.66;5033532;28;20732;-48
2022/07/04 00:39:49;;;;;;;3.33;1.43;;;;;;;18.67;72.55;98883.41;5033676;28;20259;-49
2022/07/04 00:42:34;;;;;;;4.33;1.30;;;;;;;18.71;72.27;98889.13;5033920;28;20205;-49
2022/07/04 00:45:02;;;;;;;3.50;1.30;;;;;;;18.67;72.82;98885.22;5033373;28;20196;-49
2022/07/04 00:47:29;;;;;;;1.23;1.07;;;;;;;18.59;72.27;98887.03;5031936;28;20264;-49
2022/07/04 00:49:57;;;;;;;2.53;1.30;;;;;;;18.56;72.16;98881.34;5033082;28;20222;-49
2022/07/04 00:52:24;;;;;;;2.40;1.40;;;;;;;18.47;71.49;98872.75;5033277;28;20220;-49
2022/07/04 00:54:51;;;;;;;2.70;1.27;;;;;;;18.42;72.08;98870.69;5033238;28;20251;-50
2022/07/04 00:57:18;;;;;;;2.47;1.50;;;;;;;18.35;71.85;98869.03;5031798;28;20254;-51
2022/07/04 00:59:45;;;;;;;5.10;1.30;;;;;;;18.23;71.87;98866.94;5038703;28;20298;-49
2022/07/04 01:02:13;;;;;;;2.70;1.40;;;;;;;18.18;72.48;98871.16;5046593;28;20250;-51
2022/07/04 01:04:40;;;;;;;2.87;1.37;;;;;;;18.11;72.89;98871.13;5038326;28;20206;-49
2022/07/04 01:07:07;;;;;;;3.47;1.60;;;;;;;18.07;73.13;98872.53;5030133;28;20277;-49
2022/07/04 01:09:36;;;;;;;3.30;1.47;;;;;;;17.97;73.53;98865.75;5031185;28;20698;-49
2022/07/04 01:12:05;;;;;;;4.60;1.57;;;;;;;17.97;74.41;98872.84;5032454;28;20219;-49
2022/07/04 01:14:32;;;;;;;5.70;1.37;;;;;;;17.88;73.68;98876.66;5032594;28;20198;-49
2022/07/04 01:16:59;;;;;;;5.37;1.60;;;;;;;17.84;73.57;98879.69;5032506;28;20282;-49
2022/07/04 01:19:28;;;;;;;3.83;1.60;;;;;;;17.83;74.46;98883.31;5024310;28;20190;-49
2022/07/04 01:21:57;;;;;;;6.00;1.83;;;;;;;17.75;74.66;98887.91;5032599;28;20216;-49
2022/07/04 01:24:24;;;;;;;1.57;1.40;;;;;;;17.69;74.42;98892.16;5032884;28;20185;-49
2022/07/04 01:26:51;;;;;;;4.53;1.40;;;;;;;17.61;74.38;98900.19;5027743;28;20192;-49
2022/07/04 01:29:19;;;;;;;5.93;1.70;;;;;;;17.55;74.90;98897.31;5032613;28;20279;-49
2022/07/04 01:31:47;;;;;;;4.73;1.63;;;;;;;17.51;76.32;98890.78;5026075;28;20236;-49
2022/07/04 01:34:14;;;;;;;3.93;1.50;;;;;;;17.52;77.70;98902.13;5031187;28;20658;-49
2022/07/04 01:36:41;;;;;;;2.07;1.60;;;;;;;17.54;76.85;98906.22;5032564;28;20199;-49
2022/07/04 01:39:10;;;;;;;3.13;1.43;;;;;;;17.51;76.83;98903.97;5030900;28;20206;-49
2022/07/04 01:41:37;;;;;;;5.87;1.40;;;;;;;17.55;77.82;98902.59;5030735;28;20272;-51
2022/07/04 01:44:05;;;;;;;2.30;1.73;;;;;;;17.58;77.57;98905.84;5032342;28;20238;-51
2022/07/04 01:46:32;;;;;;;5.10;1.70;;;;;;;17.56;76.94;98908.66;5030423;28;20226;-52
2022/07/04 01:48:59;;;;;;;2.80;1.80;;;;;;;17.60;78.13;98909.13;5032329;28;20197;-51
2022/07/04 01:51:27;;;;;;;4.33;1.40;;;;;;;17.67;78.20;98913.44;5024367;28;20222;-49
2022/07/04 01:53:54;;;;;;;2.57;1.63;;;;;;;17.73;78.48;98914.50;5030758;28;20196;-50
2022/07/04 01:56:23;;;;;;;5.70;1.70;;;;;;;17.75;78.10;98909.88;5030363;28;20200;-49
2022/07/04 01:58:50;;;;;;;2.97;1.83;;;;;;;17.74;78.23;98910.03;5032195;28;20199;-49
2022/07/04 02:01:31;;;;;;;5.30;1.70;;;;;;;17.74;77.81;98907.41;5030656;28;20595;-49
2022/07/04 02:04:00;;;;;;;2.77;2.13;;;;;;;17.73;77.91;98909.25;5032106;28;20650;-48
2022/07/04 02:06:27;;;;;;;3.93;2.03;;;;;;;17.77;78.18;98918.41;5031991;28;20661;-50
2022/07/04 02:14:45;;;;;;;6.50;2.00;;;;;;;17.82;77.80;98918.66;5032317;28;20203;-50
2022/07/04 02:17:12;;;;;;;3.80;1.90;;;;;;;17.89;78.63;98921.34;5032022;28;20206;-49
2022/07/04 02:19:40;;;;;;;3.53;1.83;;;;;;;17.89;78.51;98909.97;5031902;28;20196;-49
2022/07/04 02:22:07;;;;;;;3.47;1.93;;;;;;;17.91;79.62;98918.53;5031875;28;20251;-49
2022/07/04 02:24:34;;;;;;;2.93;2.00;;;;;;;17.87;79.40;98926.00;5031994;28;20817;-49
2022/07/04 02:27:02;;;;;;;5.77;1.93;;;;;;;17.82;79.02;98912.53;5031960;28;20184;-49
2022/07/04 02:29:30;;;;;;;8.77;1.90;;;;;;;17.76;78.39;98921.22;5030553;28;20724;-49
2022/07/04 02:31:57;;;;;;;2.13;1.67;;;;;;;17.71;78.46;98927.88;5031836;28;20247;-49
2022/07/04 02:34:25;;;;;;;6.43;1.60;;;;;;;17.70;78.30;98939.47;5031939;28;20241;-49
2022/07/04 02:36:52;;;;;;;3.97;1.93;;;;;;;17.69;78.57;98939.66;5031990;28;20196;-49
2022/07/04 02:39:19;;;;;;;4.20;1.70;;;;;;;17.64;79.07;98934.13;5032023;28;20306;-49
2022/07/04 02:41:47;;;;;;;3.00;1.80;;;;;;;17.56;78.95;98935.06;5031663;28;20230;-49
2022/07/04 02:44:16;;;;;;;2.60;2.07;;;;;;;17.46;79.03;98938.03;5030503;28;20198;-49
2022/07/04 02:46:43;;;;;;;3.30;2.00;;;;;;;17.39;79.18;98931.84;5031965;28;20262;-49
2022/07/04 02:49:10;;;;;;;5.73;2.13;;;;;;;17.29;80.23;98936.63;5032117;28;20192;-49
2022/07/04 02:51:37;;;;;;;1.80;1.70;;;;;;;17.22;80.49;98929.44;5031962;28;20700;-49
2022/07/04 02:54:05;;;;;;;5.43;1.87;;;;;;;17.12;79.57;98926.28;5031818;28;20215;-49
2022/07/04 02:56:32;;;;;;;6.97;2.20;;;;;;;17.05;80.17;98935.94;5023401;28;20200;-50
2022/07/04 02:58:59;;;;;;;6.00;1.97;;;;;;;17.01;80.49;98937.31;5034279;28;20202;-49
2022/07/04 03:01:28;;;;;;;3.30;2.07;;;;;;;16.94;80.03;98931.94;5025506;28;20318;-50
2022/07/04 03:03:55;;;;;;;3.77;1.77;;;;;;;16.86;79.54;98935.53;5031168;28;20279;-49
2022/07/04 03:06:22;;;;;;;3.47;1.97;;;;;;;16.80;79.86;98934.41;5034892;28;20557;-49
2022/07/04 03:08:48;;;;;;;3.77;2.10;;;;;;;16.76;80.80;98935.00;5035161;28;20318;-49
2022/07/04 03:11:16;;;;;;;6.20;2.10;;;;;;;16.73;80.73;98938.78;5034973;28;20242;-49
2022/07/04 03:13:43;;;;;;;2.67;1.80;;;;;;;16.68;81.52;98943.78;5035093;28;20190;-49
2022/07/04 03:16:10;;;;;;;3.33;1.90;;;;;;;16.64;81.52;98946.00;5035018;28;20190;-49
2022/07/04 03:18:38;;;;;;;4.37;2.30;;;;;;;16.62;81.49;98933.97;5035240;28;20210;-49
2022/07/04 03:21:06;;;;;;;3.87;2.00;;;;;;;16.58;81.66;98945.88;5034522;28;20221;-49
2022/07/04 03:23:34;;;;;;;4.30;1.97;;;;;;;16.64;81.29;98937.25;5033583;28;20240;-50
2022/07/04 03:26:01;;;;;;;6.53;2.43;;;;;;;16.60;81.04;98939.44;5034832;28;20202;-49
2022/07/04 03:28:28;;;;;;;5.97;2.30;;;;;;;16.59;81.84;98945.72;5034878;28;20185;-49
2022/07/04 03:30:56;;;;;;;5.63;1.90;;;;;;;16.57;82.14;98952.16;5034578;28;20296;-49
2022/07/04 03:33:23;;;;;;;5.87;2.30;;;;;;;16.50;82.22;98942.34;5034737;28;20193;-49
2022/07/04 03:35:51;;;;;;;2.40;1.90;;;;;;;16.48;82.30;98946.16;5034534;28;20256;-49
2022/07/04 03:38:19;;;;;;;4.17;2.30;;;;;;;16.51;82.23;98951.06;5034651;28;20596;-48
2022/07/04 03:40:46;;;;;;;4.47;2.30;;;;;;;16.55;83.15;98959.41;5034297;28;20253;-48
2022/07/04 03:43:13;;;;;;;3.30;2.03;;;;;;;16.60;82.58;98957.06;5034823;28;20524;-49
2022/07/04 03:45:40;;;;;;;4.43;2.20;;;;;;;16.60;82.68;98957.91;5032196;28;20590;-49
2022/07/04 03:48:08;;;;;;;3.97;2.10;;;;;;;16.61;82.26;98956.91;5034276;28;20253;-48
2022/07/04 03:50:35;;;;;;;5.13;2.00;;;;;;;16.61;81.89;98954.25;5025906;28;20231;-49
2022/07/04 03:53:04;;;;;;;2.93;2.20;;;;;;;16.61;81.48;98953.44;5034477;28;20214;-49
2022/07/04 03:55:31;;;;;;;3.17;2.20;;;;;;;16.62;82.06;98952.44;5034280;28;20191;-49
2022/07/04 03:57:58;;;;;;;3.43;2.63;;;;;;;16.67;82.07;98960.59;5034247;28;20647;-48
2022/07/04 04:00:26;;;;;;;5.17;2.30;;;;;;;16.73;81.65;98969.63;5033979;28;20209;-49
2022/07/04 04:02:53;;;;;;;4.73;2.20;;;;;;;16.79;80.93;98971.53;5034226;28;20214;-49
2022/07/04 04:05:30;;;;;;;5.40;2.03;;;;;;;16.89;81.08;98961.53;5034072;28;20194;-49
2022/07/04 04:07:59;;;;;;;4.63;2.17;;;;;;;16.98;80.84;98964.88;5034107;28;20262;-49
2022/07/04 04:10:29;;;;;;;4.23;2.30;;;;;;;17.01;80.72;98971.59;5033659;28;20210;-50
2022/07/04 04:12:56;;;;;;;4.97;2.50;;;;;;;17.08;79.96;98972.50;5034039;28;20233;-49
2022/07/04 04:15:23;;;;;;;4.57;1.93;;;;;;;17.02;79.91;98981.16;5033896;28;20241;-49
2022/07/04 04:17:50;;;;;;;4.43;2.17;;;;;;;17.05;80.32;98981.63;5032569;28;20306;-49
2022/07/04 04:20:18;;;;;;;3.00;2.20;;;;;;;17.03;80.51;98980.97;5033769;28;20237;-49
2022/07/04 04:22:45;;;;;;;3.57;2.00;;;;;;;17.09;80.20;98979.41;5034064;28;20194;-49
2022/07/04 04:25:12;;;;;;;6.03;2.80;;;;;;;17.07;80.53;98982.25;5033923;28;20184;-49
2022/07/04 04:27:40;;;;;;;4.33;1.70;;;;;;;17.10;81.02;98981.03;5033572;28;20196;-49
2022/07/04 04:30:08;;;;;;;2.90;2.07;;;;;;;17.19;80.69;98994.97;5033448;28;20740;-50
2022/07/04 04:32:35;;;;;;;2.67;2.20;;;;;;;17.21;80.88;99000.88;5033722;28;20623;-49
2022/07/04 04:35:03;;;;;;;5.20;2.20;;;;;;;17.23;80.36;98998.88;5033460;28;20181;-49
2022/07/04 04:37:29;;;;;;;3.63;2.40;;;;;;;17.25;80.74;99002.16;5032853;28;20430;-48
2022/07/04 04:39:57;;;;;;;3.90;2.47;;;;;;;17.20;79.89;99004.50;5031910;28;20202;-49
2022/07/04 04:42:23;;;;;;;3.57;2.13;;;;;;;17.21;80.22;99006.97;5033500;28;20261;-49
2022/07/04 04:44:52;;;;;;;2.43;1.93;;;;;;;17.28;80.00;99009.69;5032099;28;20200;-49
2022/07/04 04:47:19;;;;;;;2.90;2.20;;;;;;;17.41;79.77;99014.28;5033215;28;20228;-49
2022/07/04 04:50:05;;;;;;;2.67;1.97;;;;;;;17.55;80.11;99013.44;5033200;28;20226;-50
2022/07/04 04:52:32;;;;;;;6.27;2.30;;;;;;;17.64;79.44;99016.75;5031960;28;20188;-49
2022/07/04 04:54:59;;;;;;;3.27;2.10;;;;;;;17.68;78.44;99025.94;5033171;28;20191;-49
2022/07/04 04:57:45;;;;;;;3.20;1.93;;;;;;;17.66;79.56;99029.78;5033303;28;20202;-49
2022/07/04 05:00:14;;;;;;;3.50;2.00;;;;;;;17.63;80.14;99027.53;5032813;28;20293;-49
2022/07/04 05:02:42;;;;;;;4.00;2.00;;;;;;;17.71;79.94;99030.03;5033360;28;20207;-49
2022/07/04 05:05:09;;;;;;;4.53;2.00;;;;;;;17.81;79.07;99027.09;5033169;28;20191;-51
2022/07/04 05:07:37;;;;;;;2.87;1.70;;;;;;;18.00;78.58;99034.41;5032940;28;20187;-49
2022/07/04 05:10:05;;;;;;;3.40;1.70;;;;;;;18.30;77.64;99028.16;5032804;28;20196;-49
2022/07/04 05:12:32;;;;;;;3.20;1.93;;;;;;;18.50;77.40;99033.63;5032986;28;20219;-49
2022/07/04 05:15:00;;;;;;;2.73;1.70;;;;;;;18.69;74.98;99028.63;5032755;28;20265;-49
2022/07/04 05:17:28;;;;;;;3.27;2.00;;;;;;;18.76;73.36;99028.69;5032814;28;20180;-49
2022/07/04 05:19:56;;;;;;;4.10;1.90;;;;;;;18.77;72.52;99023.19;5031931;28;20703;-49
2022/07/04 05:22:23;;;;;;;2.03;1.60;;;;;;;18.84;73.25;99020.59;5032417;28;20197;-49
2022/07/04 05:24:50;;;;;;;6.40;1.83;;;;;;;18.92;72.91;99007.22;5031387;28;20193;-49
2022/07/04 05:27:17;;;;;;;3.97;1.83;;;;;;;18.96;73.23;99019.06;5032954;28;20195;-49
2022/07/04 05:29:45;;;;;;;2.87;1.83;;;;;;;18.92;74.91;99024.91;5032471;28;20324;-49
2022/07/04 05:32:12;;;;;;;2.87;1.60;;;;;;;19.02;73.83;99013.00;5032747;28;20646;-49
2022/07/04 05:34:41;;;;;;;2.73;1.63;;;;;;;19.09;73.13;99007.72;5031264;28;20238;-49
2022/07/04 05:37:08;;;;;;;2.03;1.60;;;;;;;19.20;72.71;99000.22;5032612;28;20184;-49
2022/07/04 05:39:35;;;;;;;3.40;1.53;;;;;;;19.22;72.75;99001.66;5032658;28;20185;-49
2022/07/04 05:42:03;;;;;;;4.03;1.83;;;;;;;19.25;72.35;99006.56;5032458;28;20224;-49
2022/07/04 05:44:30;;;;;;;3.60;1.70;;;;;;;19.32;72.07;98996.81;5032503;28;20190;-49
2022/07/04 05:46:56;;;;;;;2.00;1.50;;;;;;;19.46;71.95;98999.50;5032374;28;20192;-51
2022/07/04 05:49:24;;;;;;;4.00;1.90;;;;;;;19.68;71.47;98997.50;5032525;28;20184;-49
2022/07/04 05:51:53;;;;;;;3.57;1.60;;;;;;;19.71;69.88;98998.94;5032454;28;20205;-49
2022/07/04 05:54:20;;;;;;;3.63;1.60;;;;;;;19.72;69.68;98997.94;5032405;28;20208;-49
2022/07/04 05:56:46;;;;;;;1.93;1.60;;;;;;;19.71;70.44;99001.59;5032304;28;20191;-49
2022/07/04 05:59:13;;;;;;;5.53;2.03;;;;;;;19.77;71.06;98995.50;5032521;28;20193;-49
2022/07/04 06:01:40;;;;;;;6.17;1.50;;;;;;;19.79;71.75;98996.09;5032262;28;20205;-49
2022/07/04 06:04:06;;;;;;;4.40;2.00;;;;;;;19.89;71.22;98996.56;5032336;28;20189;-50
2022/07/04 06:06:33;;;;;;;6.63;1.60;;;;;;;19.98;70.41;98994.50;5032239;28;20825;-51
2022/07/04 06:09:03;;;;;;;3.00;1.97;;;;;;;20.12;69.45;98984.75;5032607;28;20585;-49
2022/07/04 06:11:32;;;;;;;5.87;2.30;;;;;;;20.16;68.12;98983.28;5032135;28;20204;-49
2022/07/04 06:13:59;;;;;;;2.57;1.70;;;;;;;20.16;68.41;98985.94;5032433;28;20183;-49
2022/07/04 06:16:26;;;;;;;3.33;1.43;;;;;;;20.15;66.92;98983.50;5021736;28;20531;-49
2022/07/04 06:18:54;;;;;;;2.27;1.53;;;;;;;20.26;66.38;98979.41;5029808;28;20644;-49
2022/07/04 06:21:21;;;;;;;5.37;1.77;;;;;;;20.31;65.87;98984.91;5027539;28;20228;-49
2022/07/04 06:23:48;;;;;;;4.07;1.67;;;;;;;20.39;64.95;98984.72;5031976;28;20598;-49
2022/07/04 06:26:16;;;;;;;3.73;1.70;;;;;;;20.39;65.71;98989.22;5032198;28;20194;-49
2022/07/04 06:29:01;;;;;;;2.37;1.20;;;;;;;20.37;63.46;98993.91;5032675;28;20281;-50
2022/07/04 06:31:28;;;;;;;2.40;1.50;;;;;;;20.46;65.80;98996.13;5032459;28;20219;-49
2022/07/04 06:36:39;;;;;;;2.63;1.60;;;;;;;20.81;60.52;98988.94;5035797;28;20197;-49
2022/07/04 06:39:06;;;;;;;3.03;1.40;;;;;;;20.79;63.30;98987.31;5035955;28;20192;-49
2022/07/04 06:41:34;;;;;;;2.40;1.50;;;;;;;20.79;62.22;98983.81;5035658;28;20209;-49
2022/07/04 06:44:02;;;;;;;2.33;1.17;;;;;;;20.84;64.00;98983.22;5036098;28;20649;-49
2022/07/04 06:46:29;;;;;;;4.87;1.43;;;;;;;20.79;60.60;98984.66;5035661;28;20185;-49
2022/07/04 06:48:56;;;;;;;4.57;1.40;;;;;;;20.76;63.43;98985.03;5036140;28;20293;-49
2022/07/04 06:51:24;;;;;;;3.97;1.20;;;;;;;20.74;64.94;98987.09;5035747;28;20206;-49
2022/07/04 06:53:51;;;;;;;1.33;1.10;;;;;;;20.74;64.82;98984.44;5035754;28;20529;-49
2022/07/04 06:56:18;;;;;;;2.97;1.53;;;;;;;20.73;63.45;98985.47;5035514;28;20188;-49
2022/07/04 06:58:47;;;;;;;6.50;1.27;;;;;;;20.50;60.76;98994.69;5035829;28;20193;-49
2022/07/04 07:01:15;;;;;;;1.97;1.33;;;;;;;20.19;60.05;98992.69;5035334;28;20228;-49
2022/07/04 07:03:42;;;;;;;2.47;1.30;;;;;;;19.96;61.56;98985.94;5035295;28;20190;-49
2022/07/04 07:06:10;;;;;;;2.70;1.67;;;;;;;20.10;61.38;98989.44;5035309;28;20179;-48
2022/07/04 07:08:37;;;;;;;3.57;1.50;;;;;;;19.99;60.84;98992.69;5035297;28;20191;-49
2022/07/04 07:11:13;;;;;;;1.67;1.47;;;;;;;20.05;60.92;98997.97;5033618;28;20227;-52
2022/07/04 07:13:41;;;;;;;3.90;1.37;;;;;;;20.06;62.52;98996.97;5035181;28;20193;-51
2022/07/04 07:16:09;;;;;;;5.40;1.40;;;;;;;20.12;61.56;99000.66;5035080;28;20236;-51
2022/07/04 07:18:36;;;;;;;3.23;1.43;;;;;;;20.23;61.51;99009.81;5035088;28;20225;-51
2022/07/04 07:21:04;;;;;;;5.00;1.47;;;;;;;20.25;61.73;98996.34;5033330;28;20296;-51
2022/07/04 07:23:32;;;;;;;4.33;1.90;;;;;;;20.26;61.86;99000.63;5035079;28;20586;-51
2022/07/04 07:25:59;;;;;;;3.70;1.60;;;;;;;20.34;61.86;99005.72;5034726;28;20665;-52
2022/07/04 07:28:26;;;;;;;2.23;1.43;;;;;;;20.35;62.11;99010.00;5034906;28;20556;-51
2022/07/04 07:30:52;;;;;;;3.73;2.00;;;;;;;20.43;61.14;99006.34;5034978;28;20200;-49
2022/07/04 07:33:21;;;;;;;4.30;1.60;;;;;;;20.47;61.02;99012.84;5034653;28;20295;-49
2022/07/04 07:35:48;;;;;;;6.27;1.70;;;;;;;20.59;61.27;99013.03;5034484;28;20203;-49
2022/07/04 07:38:15;;;;;;;5.27;1.83;;;;;;;20.58;61.23;99004.28;5035077;28;20186;-49
2022/07/04 07:40:43;;;;;;;2.90;1.70;;;;;;;20.73;61.37;99008.50;5034465;28;20210;-49
2022/07/04 07:43:10;;;;;;;4.20;1.63;;;;;;;20.69;60.70;98999.31;5032625;28;20615;-49
2022/07/04 07:45:37;;;;;;;7.47;1.50;;;;;;;20.55;60.59;99009.16;5034345;28;20191;-49
2022/07/04 07:48:05;;;;;;;4.57;1.70;;;;;;;20.72;60.65;99015.66;5034415;28;20657;-49
2022/07/04 07:50:34;;;;;;;3.33;1.60;;;;;;;20.82;60.57;99014.44;5034508;28;20238;-49
2022/07/04 07:53:02;;;;;;;4.00;1.70;;;;;;;20.92;59.54;99015.63;5042247;28;20584;-49
2022/07/04 07:55:29;;;;;;;5.53;1.77;;;;;;;21.08;60.65;99018.84;5054396;28;20763;-49
2022/07/04 07:57:58;;;;;;;2.87;1.80;;;;;;;21.04;57.42;99026.44;5054066;28;20220;-49
2022/07/04 08:00:25;;;;;;;3.20;1.60;;;;;;;21.08;57.87;99024.97;5053930;28;20257;-49
2022/07/04 08:05:39;;;;;;;2.17;1.60;;;;;;;20.94;57.83;99018.09;5042290;28;20198;-49
2022/07/04 08:08:09;;;;;;;2.23;1.60;;;;;;;20.92;59.05;99015.63;5049567;28;20193;-49
2022/07/04 08:10:38;;;;;;;3.47;1.40;;;;;;;20.93;59.24;99014.59;5049390;28;20237;-49
2022/07/04 08:13:04;;;;;;;3.23;1.27;;;;;;;21.03;58.41;99010.69;5050216;28;20607;-49
2022/07/04 08:15:31;;;;;;;3.17;1.60;;;;;;;21.01;57.88;99008.28;5050466;28;20195;-49
2022/07/04 08:18:00;;;;;;;3.47;1.60;;;;;;;21.17;58.63;99016.78;5051021;28;20222;-49
2022/07/04 08:20:27;;;;;;;3.47;1.43;;;;;;;21.33;56.73;99016.28;5048648;28;20701;-49
2022/07/04 08:22:55;;;;;;;2.93;1.80;;;;;;;21.38;57.07;99007.69;5050688;28;20213;-49
2022/07/04 08:25:22;;;;;;;4.03;1.80;;;;;;;21.38;58.01;99003.19;5049621;28;20277;-49
2022/07/04 08:27:49;;;;;;;3.83;1.40;;;;;;;21.49;57.56;99006.19;5051082;28;20193;-49
2022/07/04 08:30:16;;;;;;;4.17;1.50;;;;;;;21.51;57.04;99004.97;5046733;28;20209;-50
2022/07/04 08:32:43;;;;;;;5.63;1.43;;;;;;;21.66;57.31;99002.03;5050987;28;20193;-48
2022/07/04 08:35:10;;;;;;;4.57;1.70;;;;;;;21.88;56.16;98990.25;5049403;28;20197;-48
2022/07/04 08:37:37;;;;;;;4.23;1.60;;;;;;;21.99;56.98;98994.06;5050461;28;20246;-49
2022/07/04 08:40:07;;;;;;;3.77;1.40;;;;;;;22.07;57.00;98980.50;5047698;28;20247;-49
2022/07/04 08:42:38;;;;;;;4.10;1.70;;;;;;;22.12;55.34;98985.97;5050726;28;20800;-49
2022/07/04 08:45:07;;;;;;;3.13;1.40;;;;;;;22.02;55.56;98983.78;5045910;28;20276;-49
2022/07/04 08:47:35;;;;;;;2.90;1.43;;;;;;;22.01;54.66;98984.03;5046925;28;20189;-51
2022/07/04 08:50:23;;;;;;;6.17;1.77;;;;;;;22.17;54.42;98978.16;5049720;28;20214;-50
2022/07/04 08:52:56;;;;;;;3.27;1.50;;;;;;;22.31;53.57;98973.53;4999904;28;20625;-50
2022/07/04 08:58:33;;;;;;;2.10;1.03;;;;;;;22.63;53.69;98975.28;5001645;28;20202;-49
2022/07/04 09:01:04;;;;;;;4.77;1.50;;;;;;;22.62;52.03;98971.81;5001138;28;20306;-49
2022/07/04 09:03:32;;;;;;;2.87;1.37;;;;;;;22.44;52.90;98983.25;4986050;28;20230;-49
2022/07/04 09:06:01;;;;;;;2.50;1.47;;;;;;;22.61;53.30;98970.19;4989864;28;20280;-49
2022/07/04 09:08:28;;;;;;;3.90;1.60;;;;;;;22.69;54.53;98983.22;4983027;28;20220;-49
2022/07/04 09:10:56;;;;;;;6.20;1.77;;;;;;;22.85;55.38;98980.97;4990680;28;20805;-49
2022/07/04 09:13:23;;;;;;;5.90;1.50;;;;;;;22.80;53.75;98975.50;4990864;28;20279;-49
2022/07/04 09:15:52;;;;;;;3.23;1.30;;;;;;;23.05;52.68;98971.94;4990730;28;20212;-49
2022/07/04 09:18:25;;;;;;;4.97;1.53;;;;;;;23.00;52.63;98980.59;4990893;28;20239;-50
2022/07/04 09:20:54;;;;;;;4.27;1.43;;;;;;;22.79;52.62;98979.22;4990791;28;20260;-49
2022/07/04 09:23:23;;;;;;;2.50;1.43;;;;;;;22.94;52.99;98984.16;4990576;28;20243;-49
2022/07/04 09:26:08;;;;;;;2.27;1.30;;;;;;;22.98;52.47;98982.66;4990774;28;20235;-50
2022/07/04 09:28:36;;;;;;;2.93;1.47;;;;;;;23.20;50.81;98987.53;4990575;28;20207;-49
2022/07/04 09:31:03;;;;;;;3.10;1.40;;;;;;;23.25;49.70;98993.03;5024492;28;20315;-49
2022/07/04 09:33:45;;;;;;;6.07;1.67;;;;;;;23.26;48.62;98994.66;5019416;28;20194;-49
2022/07/04 09:36:13;;;;;;;3.40;1.73;;;;;;;23.56;48.62;98997.31;5030468;28;20257;-49
2022/07/04 09:38:41;;;;;;;4.10;1.50;;;;;;;23.83;48.14;99006.75;5031264;28;20294;-49
2022/07/04 09:41:34;;;;;;;3.50;1.30;;;;;;;23.74;46.44;99009.75;5030058;28;20225;-49
2022/07/04 09:44:03;;;;;;;1.37;1.17;;;;;;;23.83;45.08;99006.75;5025305;28;20254;-51
2022/07/04 09:46:30;;;;;;;2.97;1.70;;;;;;;23.72;45.29;99009.16;5032021;28;20617;-49
2022/07/04 09:48:57;;;;;;;3.23;1.20;;;;;;;23.54;46.78;99002.03;5031728;28;20195;-49
2022/07/04 09:51:39;;;;;;;3.33;1.53;;;;;;;23.56;47.07;99001.81;5031873;28;20224;-49
2022/07/04 09:54:24;;;;;;;1.90;1.00;;;;;;;23.76;47.22;99006.88;5031859;28;20194;-49
2022/07/04 09:56:55;;;;;;;6.03;1.40;;;;;;;23.88;46.08;99012.22;5028869;28;20608;-49
2022/07/04 09:59:22;;;;;;;5.87;1.30;;;;;;;23.89;46.64;99014.63;5024446;28;20193;-49
2022/07/04 10:01:49;;;;;;;4.30;1.23;;;;;;;23.96;44.89;99017.22;5026649;28;20227;-49
2022/07/04 10:04:17;;;;;;;4.27;1.27;;;;;;;23.73;44.19;99012.66;5018359;28;20224;-49
2022/07/04 10:06:45;;;;;;;1.57;1.13;;;;;;;24.07;44.03;99012.16;5014550;28;20691;-49
2022/07/04 10:09:14;;;;;;;4.37;1.20;;;;;;;24.19;44.38;99007.66;5032571;28;20206;-49
2022/07/04 10:11:44;;;;;;;4.07;1.37;;;;;;;24.21;44.17;99002.06;5035503;28;20229;-49
2022/07/04 10:14:14;;;;;;;4.23;1.40;;;;;;;24.29;43.66;99005.22;5035693;28;20195;-49
2022/07/04 10:16:42;;;;;;;2.00;1.27;;;;;;;24.29;44.27;99010.56;5035496;28;20251;-49
2022/07/04 10:19:12;;;;;;;7.07;1.37;;;;;;;24.41;44.05;99002.53;5035933;28;20181;-49
2022/07/04 10:21:40;;;;;;;3.00;1.43;;;;;;;24.60;43.61;99011.22;5035701;28;20248;-49
2022/07/04 10:24:08;;;;;;;2.40;1.20;;;;;;;24.74;44.13;99009.16;5035821;28;20200;-49
2022/07/04 10:26:36;;;;;;;3.23;1.40;;;;;;;24.84;43.80;99013.91;5034176;28;20701;-50
2022/07/04 10:29:03;;;;;;;2.90;1.40;;;;;;;24.61;44.80;99004.84;5034537;28;20678;-49
2022/07/04 10:31:34;;;;;;;3.10;1.40;;;;;;;24.97;44.42;99006.66;5035350;28;20205;-49
2022/07/04 10:34:03;;;;;;;3.77;1.60;;;;;;;25.17;44.02;99003.59;5035459;28;20193;-51
2022/07/04 10:36:52;;;;;;;3.17;1.60;;;;;;;25.61;43.28;99009.25;5035206;28;20428;-49
2022/07/04 10:39:23;;;;;;;5.20;1.40;;;;;;;25.81;42.12;99013.31;5035475;28;20199;-49
2022/07/04 10:41:58;;;;;;;6.23;1.80;;;;;;;25.66;41.62;99015.72;5035249;28;20211;-49
2022/07/04 10:44:26;;;;;;;3.25;1.55;;;;;;;25.63;42.47;99009.00;5035329;28;20213;-50
2022/07/04 10:46:56;;;;;;;3.17;1.50;;;;;;;25.34;43.65;98992.97;5035470;28;20206;-50
2022/07/04 10:49:28;;;;;;;5.77;1.60;;;;;;;25.72;43.47;98994.19;5035039;28;20733;-50
2022/07/04 10:52:09;;;;;;;5.47;1.80;;;;;;;26.06;41.71;98996.03;5033503;28;20266;-50
2022/07/04 10:54:38;;;;;;;5.20;1.57;;;;;;;25.78;41.79;98984.41;5035348;28;20730;-49
2022/07/04 10:57:11;;;;;;;1.67;1.55;;;;;;;26.09;41.93;98982.19;5034963;28;20210;-50
2022/07/04 10:59:40;;;;;;;2.63;1.42;;;;;;;26.13;40.99;98990.53;5035083;28;20655;-50
2022/07/04 11:02:29;;;;;;;4.30;1.60;;;;;;;25.65;42.42;98996.19;5035249;28;20195;-50
2022/07/04 11:05:02;;;;;;;3.13;1.60;;;;;;;25.70;42.05;98985.59;5035205;28;20659;-50
2022/07/04 11:08:00;;;;;;;13.13;4.30;;;;;;;26.01;41.71;98987.94;5034701;28;20222;-50
2022/07/04 11:10:30;;;;;;;39.80;17.30;;;;;;;26.03;43.80;98978.63;5034647;28;20754;-50
2022/07/04 11:13:18;;;;;;;16.53;6.27;;;;;;;26.20;43.36;98973.28;5035171;28;20186;-49
2022/07/04 11:16:02;;;;;;;8.05;5.03;;;;;;;26.44;45.52;98981.13;5030743;28;20686;-48
2022/07/04 11:18:40;;;;;;;3.93;1.50;;;;;;;26.54;40.89;98980.44;5031511;28;20200;-52
2022/07/04 11:21:22;;;;;;;7.30;1.80;;;;;;;26.33;40.93;98982.84;5034670;28;20225;-50
2022/07/04 11:23:52;;;;;;;7.53;1.90;;;;;;;26.37;42.96;98975.13;5034720;28;20677;-49
2022/07/04 11:26:21;;;;;;;6.03;2.17;;;;;;;26.16;44.20;98969.47;5034550;28;20280;-50
2022/07/04 11:28:48;;;;;;;4.93;1.45;;;;;;;26.68;41.36;98976.34;5033413;28;20288;-50
2022/07/04 11:31:15;;;;;;;4.55;1.30;;;;;;;26.85;42.24;98975.50;5035146;28;20247;-51
2022/07/04 11:33:45;;;;;;;3.80;1.40;;;;;;;26.93;41.27;98976.94;5035823;28;20194;-52
2022/07/04 11:36:14;;;;;;;3.13;1.30;;;;;;;27.17;41.27;98974.78;5035307;28;20214;-50
2022/07/04 11:38:45;;;;;;;2.92;1.60;;;;;;;27.32;41.48;98967.97;5036075;28;20209;-50
2022/07/04 11:46:41;;;;;;;4.03;1.17;;;;;;;26.98;40.85;98968.16;5029374;28;20686;-50
2022/07/04 11:49:10;;;;;;;5.87;1.60;;;;;;;26.61;41.15;98961.53;5035945;28;20195;-50
2022/07/04 11:51:42;;;;;;;2.33;1.55;;;;;;;26.60;41.22;98958.03;5034784;28;20700;-51
2022/07/04 11:54:28;;;;;;;5.78;1.50;;;;;;;26.45;41.25;98955.97;5036355;28;20293;-50
2022/07/04 11:57:09;;;;;;;2.90;1.63;;;;;;;26.71;41.23;98952.81;5035470;28;20213;-51
2022/07/04 11:59:37;;;;;;;2.93;1.67;;;;;;;27.02;39.47;98959.38;5035684;28;20604;-51
2022/07/04 12:02:15;;;;;;;2.38;1.38;;;;;;;26.59;39.53;98959.09;5034405;28;20265;-50
2022/07/04 12:04:43;;;;;;;2.53;1.60;;;;;;;27.06;40.94;98951.63;5039248;28;20293;-51